Time;durP1;ratioP1;P1;durP2;ratioP2;P2;SDS_P1;SDS_P2;PMS_P1;PMS_P2;Temp;Humidity;BMP_temperature;BMP_pressure;BME280_temperature;BME280_humidity;BME280_pressure;Samples;Min_cycle;Max_cycle;Signal;HPM_P1;HPM_P2
2021/05/28 00:03:06;;;;;;;0.00;0.00;;;;;;;8.34;91.47;102114.91;10578981;28;20039;-66
2021/05/28 00:08:06;;;;;;;0.00;0.00;;;;;;;8.24;91.35;102124.53;10578336;28;20490;-66
2021/05/28 00:13:07;;;;;;;0.10;0.10;;;;;;;8.13;92.18;102120.84;10578631;28;20027;-66
2021/05/28 00:18:08;;;;;;;0.10;0.10;;;;;;;8.04;91.83;102132.13;10578480;28;20281;-66
2021/05/28 00:23:09;;;;;;;0.00;0.00;;;;;;;7.97;92.30;102140.63;10578560;28;20023;-66
2021/05/28 00:28:09;;;;;;;0.10;0.10;;;;;;;7.91;92.73;102136.59;10578696;28;20012;-66
2021/05/28 00:33:09;;;;;;;0.00;0.00;;;;;;;7.87;92.37;102143.09;10559764;28;20465;-66
2021/05/28 00:38:09;;;;;;;0.00;0.00;;;;;;;7.81;92.58;102151.50;10578021;28;20023;-66
2021/05/28 00:43:10;;;;;;;0.00;0.00;;;;;;;7.75;92.13;102150.13;10577445;28;20531;-66
2021/05/28 00:48:10;;;;;;;0.10;0.10;;;;;;;7.69;92.59;102162.00;10578085;28;20393;-66
2021/05/28 00:53:11;;;;;;;0.00;0.00;;;;;;;7.65;92.63;102159.66;10577303;28;20032;-66
2021/05/28 00:58:12;;;;;;;0.10;0.10;;;;;;;7.57;92.28;102164.69;10559064;28;20277;-66
2021/05/28 01:03:12;;;;;;;0.03;0.03;;;;;;;7.46;92.63;102168.06;10577167;28;20470;-66
2021/05/28 01:08:13;;;;;;;0.00;0.00;;;;;;;7.41;92.86;102178.13;10568510;28;20042;-66
2021/05/28 01:13:14;;;;;;;0.00;0.00;;;;;;;7.34;92.47;102172.41;10534357;28;20032;-66
2021/05/28 01:18:15;;;;;;;0.00;0.00;;;;;;;7.29;92.65;102178.97;10540439;28;20453;-66
2021/05/28 01:23:15;;;;;;;0.00;0.00;;;;;;;7.22;92.34;102183.84;10549282;28;20024;-66
2021/05/28 01:28:15;;;;;;;0.10;0.10;;;;;;;7.14;92.60;102192.31;10548633;28;20336;-66
2021/05/28 01:33:16;;;;;;;0.10;0.10;;;;;;;7.10;93.04;102201.44;10548173;28;20040;-66
2021/05/28 01:38:16;;;;;;;0.00;0.00;;;;;;;7.10;93.31;102205.84;10548490;28;20687;-66
2021/05/28 01:43:16;;;;;;;0.10;0.10;;;;;;;7.08;92.49;102200.69;10547978;28;20084;-66
2021/05/28 01:48:17;;;;;;;0.00;0.00;;;;;;;7.09;93.00;102206.81;10530265;28;20493;-66
2021/05/28 01:53:23;;;;;;;0.10;0.10;;;;;;;7.09;92.80;102220.91;10547956;28;20028;-66
2021/05/28 01:58:24;;;;;;;0.00;0.00;;;;;;;7.08;92.49;102213.94;10548051;28;20028;-66
2021/05/28 02:03:25;;;;;;;0.00;0.00;;;;;;;7.07;92.21;102221.97;10547886;28;20024;-66
2021/05/28 02:08:26;;;;;;;0.00;0.00;;;;;;;7.05;92.36;102229.19;10547717;28;20103;-66
2021/05/28 02:13:26;;;;;;;0.00;0.00;;;;;;;7.02;92.29;102224.94;10553039;22;20035;-72
2021/05/28 02:18:26;;;;;;;0.00;0.00;;;;;;;7.03;92.54;102237.22;10525853;28;20119;-71
2021/05/28 02:23:27;;;;;;;0.07;0.07;;;;;;;7.02;92.19;102238.19;10543808;28;20270;-71
2021/05/28 02:28:27;;;;;;;0.00;0.00;;;;;;;7.08;92.71;102245.72;10542455;28;20327;-71
2021/05/28 02:33:27;;;;;;;0.00;0.00;;;;;;;7.18;92.16;102244.13;10537433;28;20268;-71
2021/05/28 02:38:27;;;;;;;0.00;0.00;;;;;;;7.30;91.84;102245.16;10537130;28;20313;-71
2021/05/28 02:43:28;;;;;;;0.00;0.00;;;;;;;7.39;92.27;102249.81;10536412;28;20031;-71
2021/05/28 02:48:28;;;;;;;0.10;0.10;;;;;;;7.47;91.90;102246.63;10518188;28;20049;-71
2021/05/28 02:53:34;;;;;;;0.10;0.10;;;;;;;7.57;91.84;102246.88;10536079;28;20628;-71
2021/05/28 02:58:34;;;;;;;0.00;0.00;;;;;;;7.63;91.83;102257.06;10536028;28;20024;-71
2021/05/28 03:03:34;;;;;;;0.00;0.00;;;;;;;7.69;90.94;102268.09;10535384;28;20024;-71
2021/05/28 03:08:35;;;;;;;0.10;0.10;;;;;;;7.76;91.34;102265.84;10535617;28;20258;-71
2021/05/28 03:13:35;;;;;;;0.00;0.00;;;;;;;8.10;90.42;102274.97;10535104;28;20048;-71
2021/05/28 03:18:58;;;;;;;0.10;0.10;;;;;;;8.56;89.80;102279.72;10535145;28;20103;-72
2021/05/28 03:23:57;;;;;;;0.10;0.10;;;;;;;8.68;88.68;102288.59;10534463;28;20051;-71
2021/05/28 03:28:59;;;;;;;0.00;0.00;;;;;;;9.09;88.59;102291.84;10535042;28;20047;-71
2021/05/28 03:33:59;;;;;;;0.00;0.00;;;;;;;9.50;87.58;102302.88;10534877;28;20020;-71
2021/05/28 03:38:59;;;;;;;0.10;0.10;;;;;;;10.08;86.52;102300.22;10534705;28;20032;-71
2021/05/28 03:44:00;;;;;;;0.10;0.10;;;;;;;11.07;84.42;102296.72;10532819;28;20024;-71
2021/05/28 03:49:00;;;;;;;0.10;0.10;;;;;;;11.43;81.61;102310.66;10532488;28;20031;-71
2021/05/28 03:54:00;;;;;;;0.10;0.10;;;;;;;10.85;82.79;102305.66;10533317;28;20024;-70
2021/05/28 03:59:01;;;;;;;0.10;0.10;;;;;;;10.41;84.42;102314.53;10533251;28;20042;-70
2021/05/28 04:04:01;;;;;;;0.10;0.10;;;;;;;10.37;85.07;102307.78;10533192;28;20331;-70
2021/05/28 04:09:02;;;;;;;0.10;0.10;;;;;;;11.89;82.75;102300.59;10533538;28;20286;-70
2021/05/28 04:14:03;;;;;;;0.10;0.10;;;;;;;13.39;78.44;102297.09;10532733;28;20036;-70
2021/05/28 04:19:03;;;;;;;0.10;0.10;;;;;;;14.34;74.75;102291.63;10514640;28;20436;-69
2021/05/28 04:24:04;;;;;;;0.10;0.10;;;;;;;15.11;72.60;102284.13;10532614;28;20031;-73
2021/05/28 04:29:04;;;;;;;0.15;0.15;;;;;;;14.42;72.38;102282.84;10532431;28;20016;-70
2021/05/28 04:34:05;;;;;;;0.10;0.10;;;;;;;14.06;74.41;102274.69;10531973;28;20027;-70
2021/05/28 04:39:05;;;;;;;0.10;0.10;;;;;;;13.64;74.61;102279.56;10532144;28;20028;-69
2021/05/28 04:44:06;;;;;;;0.10;0.10;;;;;;;12.54;76.86;102299.34;10531295;28;20028;-70
2021/05/28 04:49:06;;;;;;;0.10;0.10;;;;;;;11.69;79.81;102307.59;10531483;28;20512;-69
2021/05/28 04:54:07;;;;;;;0.10;0.10;;;;;;;10.97;82.08;102311.81;10530535;28;20393;-69
2021/05/28 04:59:07;;;;;;;0.10;0.10;;;;;;;10.63;83.91;102324.34;10512769;28;20383;-70
2021/05/28 05:04:07;;;;;;;0.10;0.10;;;;;;;10.44;83.94;102327.59;10530918;28;20479;-70
2021/05/28 05:09:08;;;;;;;0.10;0.10;;;;;;;10.26;84.80;102337.88;10483015;28;20328;-70
2021/05/28 05:14:08;;;;;;;0.10;0.10;;;;;;;10.10;84.60;102346.22;10512689;28;20031;-70
2021/05/28 05:19:08;;;;;;;0.10;0.10;;;;;;;10.02;85.42;102351.28;10489121;28;20106;-70
2021/05/28 05:24:10;;;;;;;0.10;0.10;;;;;;;10.14;84.81;102352.16;10488409;28;20554;-70
2021/05/28 05:29:11;;;;;;;0.10;0.10;;;;;;;10.41;83.67;102349.16;10471075;28;20025;-70
2021/05/28 05:34:11;;;;;;;0.10;0.10;;;;;;;10.59;82.30;102357.53;10479308;28;20056;-69
2021/05/28 05:39:11;;;;;;;0.10;0.10;;;;;;;10.52;82.97;102369.63;10463118;28;20025;-69
2021/05/28 05:44:12;;;;;;;0.10;0.10;;;;;;;10.37;83.58;102375.19;10473201;28;20028;-70
2021/05/28 05:49:12;;;;;;;0.10;0.10;;;;;;;10.32;83.50;102380.03;10456523;28;20029;-71
2021/05/28 05:54:13;;;;;;;0.10;0.10;;;;;;;10.31;83.90;102372.19;10465312;28;20449;-71
2021/05/28 05:59:13;;;;;;;0.10;0.10;;;;;;;10.28;83.90;102378.59;10456771;28;20104;-70
2021/05/28 06:04:13;;;;;;;0.10;0.10;;;;;;;10.21;85.01;102372.03;10470137;28;20017;-71
2021/05/28 06:09:14;;;;;;;0.10;0.10;;;;;;;10.09;85.51;102371.13;10476237;28;20017;-70
2021/05/28 06:14:14;;;;;;;0.10;0.10;;;;;;;10.03;85.20;102384.91;10472965;28;20020;-70
2021/05/28 06:19:15;;;;;;;0.10;0.10;;;;;;;9.96;85.17;102387.19;10472489;28;20428;-70
2021/05/28 06:24:16;;;;;;;0.10;0.10;;;;;;;9.91;84.99;102397.34;10480036;28;20156;-70
2021/05/28 06:29:16;;;;;;;0.10;0.10;;;;;;;9.82;83.45;102395.38;10462088;28;20143;-70
2021/05/28 06:34:17;;;;;;;0.10;0.10;;;;;;;9.76;83.46;102406.50;10477119;28;20397;-70
2021/05/28 06:39:17;;;;;;;0.10;0.10;;;;;;;9.74;82.81;102409.28;10470587;28;20048;-70
2021/05/28 06:44:23;;;;;;;0.10;0.10;;;;;;;9.73;84.37;102410.22;10477965;28;20017;-70
2021/05/28 06:49:23;;;;;;;0.10;0.10;;;;;;;9.77;83.98;102429.47;10458919;28;20074;-70
2021/05/28 06:54:24;;;;;;;0.10;0.10;;;;;;;9.90;83.82;102424.09;10457673;28;20021;-70
2021/05/28 06:59:24;;;;;;;0.10;0.10;;;;;;;10.05;84.01;102433.56;10479347;28;20021;-70
2021/05/28 07:04:25;;;;;;;0.10;0.10;;;;;;;10.21;83.56;102438.59;10461553;28;20055;-70
2021/05/28 07:09:25;;;;;;;0.10;0.10;;;;;;;10.36;82.83;102442.78;10470421;28;20016;-70
2021/05/28 07:14:25;;;;;;;0.10;0.10;;;;;;;10.66;81.43;102436.03;10467182;28;20071;-70
2021/05/28 07:19:26;;;;;;;0.10;0.10;;;;;;;11.11;80.54;102430.66;10480465;28;20020;-70
2021/05/28 07:24:26;;;;;;;0.10;0.10;;;;;;;11.32;79.49;102434.28;10486650;28;20028;-70
2021/05/28 07:29:27;;;;;;;0.10;0.10;;;;;;;11.32;79.43;102441.44;10460861;28;20407;-70
2021/05/28 07:34:27;;;;;;;0.10;0.10;;;;;;;11.40;79.23;102438.13;10470006;28;20128;-70
2021/05/28 07:39:28;;;;;;;0.10;0.10;;;;;;;11.73;78.33;102438.03;10452204;28;20031;-70
2021/05/28 07:44:28;;;;;;;0.10;0.10;;;;;;;12.13;78.08;102442.72;10474510;28;20017;-69
2021/05/28 07:49:28;;;;;;;0.10;0.10;;;;;;;12.83;76.26;102437.63;10432408;28;20088;-69
2021/05/28 07:54:29;;;;;;;0.10;0.10;;;;;;;12.93;73.05;102437.66;10449415;28;20032;-69
2021/05/28 07:59:30;;;;;;;0.10;0.10;;;;;;;12.64;73.22;102435.69;10432109;28;20036;-69
2021/05/28 08:04:30;;;;;;;0.10;0.10;;;;;;;12.94;72.99;102442.84;10476894;28;20757;-69
2021/05/28 08:09:30;;;;;;;0.10;0.10;;;;;;;12.69;74.14;102447.69;10491107;28;20024;-69
2021/05/28 08:14:31;;;;;;;0.10;0.10;;;;;;;12.32;73.76;102450.00;10535955;22;20040;-67
2021/05/28 08:19:31;;;;;;;0.10;0.10;;;;;;;12.22;75.24;102455.31;10505232;28;20029;-68
2021/05/28 08:24:31;;;;;;;0.10;0.10;;;;;;;12.64;74.68;102454.41;10471851;28;20033;-67
2021/05/28 08:29:32;;;;;;;0.10;0.10;;;;;;;13.54;73.05;102451.78;10465620;28;20020;-66
2021/05/28 08:34:32;;;;;;;0.10;0.10;;;;;;;14.23;71.47;102455.31;10476210;28;20020;-67
2021/05/28 08:39:33;;;;;;;0.10;0.10;;;;;;;14.04;70.33;102454.31;10482627;28;20078;-67
2021/05/28 08:44:35;;;;;;;0.10;0.10;;;;;;;13.71;70.56;102441.38;10463419;28;20042;-67
2021/05/28 08:49:37;;;;;;;0.10;0.10;;;;;;;13.37;72.51;102460.47;10480605;28;20028;-67
2021/05/28 08:54:37;;;;;;;0.10;0.10;;;;;;;13.22;73.96;102457.31;10479046;28;20055;-68
2021/05/28 08:59:38;;;;;;;0.17;0.17;;;;;;;13.72;70.61;102451.09;10461399;28;20108;-68
2021/05/28 09:04:38;;;;;;;0.10;0.10;;;;;;;13.65;72.19;102453.50;10472101;28;20499;-68
2021/05/28 09:09:40;;;;;;;0.10;0.10;;;;;;;13.33;73.68;102453.72;10433519;28;20020;-68
2021/05/28 09:14:43;;;;;;;0.00;0.00;;;;;;;13.45;73.63;102449.94;10464635;28;20028;-68
2021/05/28 09:19:52;;;;;;;0.10;0.10;;;;;;;14.04;73.52;102456.16;10485171;28;20040;-68
2021/05/28 09:24:56;;;;;;;0.00;0.00;;;;;;;14.17;71.07;102455.88;10454318;28;20055;-66
2021/05/28 09:30:01;;;;;;;0.10;0.10;;;;;;;13.82;72.31;102454.63;10493065;28;20020;-68
2021/05/28 09:35:02;;;;;;;0.00;0.00;;;;;;;13.36;74.95;102461.47;10454824;28;20167;-68
2021/05/28 09:40:14;;;;;;;0.10;0.10;;;;;;;13.05;76.34;102477.53;10437397;28;20060;-68
2021/05/28 09:45:34;;;;;;;0.10;0.10;;;;;;;13.10;75.53;102471.78;10459089;28;20036;-67
2021/05/28 09:50:43;;;;;;;0.10;0.10;;;;;;;13.15;74.96;102480.25;10484110;28;20032;-68
2021/05/28 09:55:43;;;;;;;0.10;0.10;;;;;;;13.13;76.61;102476.88;10466773;28;20025;-68
2021/05/28 10:00:43;;;;;;;0.10;0.10;;;;;;;12.93;76.27;102486.63;10499457;28;20032;-69
2021/05/28 10:05:47;;;;;;;0.10;0.10;;;;;;;13.33;75.96;102483.16;10480453;28;20027;-69
2021/05/28 10:10:50;;;;;;;0.13;0.13;;;;;;;14.16;73.92;102480.97;10481353;28;20093;-69
2021/05/28 10:15:52;;;;;;;0.10;0.10;;;;;;;14.21;70.51;102484.06;10475630;28;20025;-67
2021/05/28 10:20:54;;;;;;;0.10;0.10;;;;;;;14.02;71.79;102475.06;10482757;28;20028;-67
2021/05/28 10:25:57;;;;;;;0.10;0.10;;;;;;;13.93;71.69;102481.28;10462221;28;20024;-67
2021/05/28 10:30:58;;;;;;;0.10;0.10;;;;;;;13.96;71.67;102481.00;10439694;28;20017;-68
2021/05/28 10:36:07;;;;;;;0.10;0.10;;;;;;;13.99;70.70;102477.16;10482807;28;20107;-68
2021/05/28 10:41:07;;;;;;;0.10;0.10;;;;;;;14.06;70.55;102481.00;10496358;28;20055;-66
2021/05/28 10:46:09;;;;;;;0.10;0.10;;;;;;;14.22;72.21;102483.06;10494583;28;20048;-68
2021/05/28 10:51:17;;;;;;;0.10;0.10;;;;;;;14.88;69.46;102476.88;10496990;28;20498;-68
2021/05/28 10:56:23;;;;;;;0.10;0.10;;;;;;;15.66;68.93;102468.41;10497621;28;20021;-67
2021/05/28 11:01:35;;;;;;;0.10;0.10;;;;;;;16.51;66.98;102466.94;10497608;28;20020;-69
2021/05/28 11:06:54;;;;;;;0.10;0.10;;;;;;;16.95;66.58;102466.88;10497245;28;20387;-66
2021/05/28 11:11:54;;;;;;;0.10;0.10;;;;;;;17.38;63.96;102460.47;10479402;28;20028;-70
2021/05/28 11:16:55;;;;;;;0.10;0.10;;;;;;;17.70;62.67;102452.63;10478557;28;20471;-69
2021/05/28 11:22:01;;;;;;;0.10;0.10;;;;;;;17.69;62.77;102451.78;10496473;28;20119;-70
2021/05/28 11:27:13;;;;;;;0.05;0.05;;;;;;;17.20;63.62;102454.38;10478830;28;20027;-69
2021/05/28 11:32:30;;;;;;;0.00;0.00;;;;;;;16.69;63.71;102461.50;10496112;28;20025;-69
2021/05/28 11:37:38;;;;;;;0.10;0.10;;;;;;;16.96;62.98;102455.13;10496441;28;20020;-70
2021/05/28 11:42:41;;;;;;;0.10;0.10;;;;;;;16.66;63.13;102451.91;10495528;28;20047;-69
2021/05/28 11:47:42;;;;;;;0.10;0.10;;;;;;;16.04;65.29;102453.84;10487944;28;20483;-69
2021/05/28 11:53:01;;;;;;;0.10;0.10;;;;;;;15.68;66.03;102456.56;10454017;28;20052;-69
2021/05/28 11:58:03;;;;;;;0.10;0.10;;;;;;;15.22;66.90;102463.75;10474808;28;20021;-69
2021/05/28 12:03:05;;;;;;;0.10;0.10;;;;;;;14.86;70.58;102463.59;10463778;28;20025;-69
2021/05/28 12:08:11;;;;;;;0.10;0.10;;;;;;;14.57;72.13;102462.88;10480664;28;20158;-68
2021/05/28 12:13:16;;;;;;;0.10;0.10;;;;;;;14.11;72.69;102464.47;10482267;28;20024;-69
2021/05/28 12:18:31;;;;;;;0.10;0.10;;;;;;;13.71;75.90;102479.72;10465434;28;20016;-68
2021/05/28 12:23:33;;;;;;;0.10;0.10;;;;;;;13.27;76.54;102489.06;10489152;28;20035;-66
2021/05/28 12:28:37;;;;;;;0.10;0.10;;;;;;;12.82;79.34;102492.91;10493801;28;20100;-65
2021/05/28 12:33:40;;;;;;;0.10;0.10;;;;;;;12.61;80.68;102487.59;10493699;28;20033;-65
2021/05/28 12:38:40;;;;;;;0.10;0.10;;;;;;;12.61;80.45;102489.44;10493131;28;20467;-66
2021/05/28 12:43:43;;;;;;;0.10;0.10;;;;;;;12.65;79.95;102486.38;10493413;28;20035;-67
2021/05/28 12:48:55;;;;;;;0.17;0.17;;;;;;;12.69;79.01;102486.97;10493101;28;20107;-66
2021/05/28 12:53:57;;;;;;;0.10;0.10;;;;;;;12.87;78.47;102482.69;10492562;28;20034;-66
2021/05/28 12:58:58;;;;;;;0.10;0.10;;;;;;;13.14;75.03;102479.38;10492799;28;20052;-65
2021/05/28 13:04:00;;;;;;;0.10;0.10;;;;;;;13.24;76.08;102475.94;10469416;28;20496;-67
2021/05/28 13:09:14;;;;;;;0.22;0.20;;;;;;;13.53;74.43;102466.16;10477536;28;20404;-67
2021/05/28 13:14:31;;;;;;;0.10;0.10;;;;;;;13.80;74.51;102468.16;10477373;28;20596;-67
2021/05/28 13:19:31;;;;;;;0.10;0.10;;;;;;;13.73;74.48;102464.34;10463868;28;20369;-67
2021/05/28 13:24:34;;;;;;;0.10;0.10;;;;;;;13.67;71.70;102474.75;10475994;28;20025;-67
2021/05/28 13:30:06;;;;;;;0.10;0.10;;;;;;;14.07;73.43;102466.59;10476822;28;20017;-68
2021/05/28 13:35:13;;;;;;;0.10;0.10;;;;;;;14.30;72.03;102471.66;10453619;28;20051;-67
2021/05/28 13:40:14;;;;;;;0.10;0.10;;;;;;;14.18;69.84;102474.47;10471318;28;20020;-66
2021/05/28 13:45:15;;;;;;;0.10;0.10;;;;;;;13.93;69.74;102462.53;10466868;28;20019;-68
2021/05/28 13:50:15;;;;;;;0.10;0.10;;;;;;;13.90;69.63;102476.19;10451651;28;20531;-68
2021/05/28 13:55:16;;;;;;;0.10;0.10;;;;;;;13.90;70.54;102470.81;10470140;28;20463;-68
2021/05/28 14:00:16;;;;;;;0.10;0.10;;;;;;;13.76;72.05;102458.72;10469645;28;20429;-69
2021/05/28 14:05:17;;;;;;;0.10;0.10;;;;;;;13.82;70.05;102465.34;10472607;28;20037;-69
2021/05/28 14:10:17;;;;;;;0.10;0.10;;;;;;;13.92;70.43;102460.81;10479384;28;20024;-68
2021/05/28 14:15:19;;;;;;;0.10;0.10;;;;;;;14.00;71.90;102468.16;10512977;22;20043;-67
2021/05/28 14:20:24;;;;;;;0.10;0.10;;;;;;;13.90;71.90;102456.59;10526156;28;20103;-67
2021/05/28 14:25:26;;;;;;;0.10;0.10;;;;;;;13.57;71.93;102448.81;10506497;28;20054;-67
2021/05/28 14:30:28;;;;;;;0.10;0.10;;;;;;;13.16;73.44;102449.84;10525428;28;20021;-66
2021/05/28 14:35:29;;;;;;;0.10;0.10;;;;;;;13.00;75.00;102450.38;10497199;28;20024;-67
2021/05/28 14:40:29;;;;;;;0.10;0.10;;;;;;;13.10;74.76;102453.91;10502787;28;20039;-66
2021/05/28 14:45:29;;;;;;;0.10;0.10;;;;;;;13.03;74.04;102449.22;10533875;28;20282;-67
2021/05/28 14:50:30;;;;;;;0.10;0.10;;;;;;;13.01;74.87;102444.03;10483490;28;20263;-67
2021/05/28 14:55:31;;;;;;;0.10;0.10;;;;;;;13.09;73.87;102444.19;10521793;28;20020;-67
2021/05/28 15:00:31;;;;;;;0.10;0.10;;;;;;;13.31;74.29;102428.91;10517224;28;20031;-70
2021/05/28 15:05:31;;;;;;;0.10;0.10;;;;;;;13.48;71.03;102433.59;10494417;28;20021;-68
2021/05/28 15:10:32;;;;;;;0.10;0.10;;;;;;;13.62;72.16;102442.22;10494676;28;20461;-67
2021/05/28 15:15:32;;;;;;;0.10;0.10;;;;;;;13.19;72.10;102440.69;10502010;28;20027;-66
2021/05/28 15:20:37;;;;;;;0.10;0.10;;;;;;;12.96;74.26;102435.56;10518843;28;20068;-67
2021/05/28 15:25:38;;;;;;;0.00;0.00;;;;;;;12.99;74.45;102437.97;10531524;28;20053;-69
2021/05/28 15:30:39;;;;;;;0.10;0.10;;;;;;;13.06;73.48;102439.13;10535320;28;20318;-68
2021/05/28 15:35:40;;;;;;;0.10;0.10;;;;;;;13.19;73.20;102443.38;10535821;28;20020;-69
2021/05/28 15:40:42;;;;;;;0.10;0.10;;;;;;;13.10;72.61;102445.88;10535511;28;20377;-68
2021/05/28 15:45:42;;;;;;;0.10;0.10;;;;;;;13.04;72.92;102443.75;10535582;28;20016;-69
2021/05/28 15:50:44;;;;;;;0.10;0.10;;;;;;;12.88;73.53;102452.25;10535264;28;20039;-68
2021/05/28 15:55:45;;;;;;;0.00;0.00;;;;;;;12.84;73.57;102456.19;10494207;28;20372;-68
2021/05/28 16:00:46;;;;;;;0.10;0.10;;;;;;;12.69;73.85;102446.84;10492863;28;20031;-68
2021/05/28 16:05:47;;;;;;;0.10;0.10;;;;;;;12.72;74.01;102454.59;10509963;28;20023;-68
2021/05/28 16:10:49;;;;;;;0.10;0.10;;;;;;;12.78;72.00;102462.09;10534852;28;20016;-68
2021/05/28 16:15:49;;;;;;;0.10;0.10;;;;;;;12.71;73.68;102460.06;10536840;28;20478;-69
2021/05/28 16:20:49;;;;;;;0.10;0.10;;;;;;;12.57;73.35;102463.97;10536116;28;20101;-67
2021/05/28 16:25:50;;;;;;;0.10;0.10;;;;;;;12.26;74.10;102457.72;10536591;28;20070;-68
2021/05/28 16:30:50;;;;;;;0.10;0.10;;;;;;;12.21;75.21;102466.94;10536379;28;20031;-68
2021/05/28 16:35:51;;;;;;;0.10;0.10;;;;;;;12.14;75.14;102460.44;10517911;28;20432;-67
2021/05/28 16:40:51;;;;;;;0.10;0.10;;;;;;;12.02;75.34;102463.31;10535519;28;20076;-68
2021/05/28 16:45:51;;;;;;;0.10;0.10;;;;;;;11.83;76.10;102472.81;10535803;28;20594;-68
2021/05/28 16:50:55;;;;;;;0.10;0.10;;;;;;;11.70;76.03;102469.47;10534778;28;20028;-68
2021/05/28 16:55:56;;;;;;;0.10;0.10;;;;;;;11.57;76.34;102488.28;10517773;28;20386;-67
2021/05/28 17:01:09;;;;;;;0.10;0.10;;;;;;;11.37;76.09;102484.56;10534867;28;20035;-67
2021/05/28 17:06:10;;;;;;;0.10;0.10;;;;;;;11.21;75.92;102484.97;10535156;28;20024;-68
2021/05/28 17:11:10;;;;;;;0.03;0.03;;;;;;;11.10;76.40;102487.63;10534545;28;20475;-69
2021/05/28 17:16:11;;;;;;;0.10;0.10;;;;;;;11.01;77.25;102491.03;10516102;28;20016;-68
2021/05/28 17:21:11;;;;;;;0.10;0.10;;;;;;;10.93;78.01;102491.63;10534499;28;20027;-68
2021/05/28 17:26:11;;;;;;;0.10;0.10;;;;;;;10.85;78.04;102494.06;10534670;28;20046;-67
2021/05/28 17:31:12;;;;;;;0.10;0.10;;;;;;;10.78;76.62;102487.50;10534253;28;20028;-68
2021/05/28 17:36:13;;;;;;;0.10;0.10;;;;;;;10.73;77.73;102490.53;10534545;28;20023;-68
2021/05/28 17:41:16;;;;;;;0.10;0.10;;;;;;;10.74;77.01;102476.25;10533881;28;20436;-68
2021/05/28 17:46:16;;;;;;;0.10;0.10;;;;;;;10.69;77.35;102478.41;10534815;28;20050;-67
2021/05/28 17:51:16;;;;;;;0.10;0.10;;;;;;;10.64;77.11;102469.94;10533658;28;20058;-67
2021/05/28 17:56:17;;;;;;;0.10;0.10;;;;;;;10.62;77.13;102474.53;10534109;28;20020;-67
2021/05/28 18:01:17;;;;;;;0.10;0.10;;;;;;;10.62;77.42;102464.72;10537222;28;20458;-67
2021/05/28 18:06:18;;;;;;;0.10;0.10;;;;;;;10.60;77.46;102477.31;10541905;28;20378;-67
2021/05/28 18:11:19;;;;;;;0.10;0.10;;;;;;;10.56;78.10;102480.31;10541801;28;20047;-68
2021/05/28 18:16:19;;;;;;;0.10;0.10;;;;;;;10.51;77.73;102472.69;10541809;28;20078;-67
2021/05/28 18:21:19;;;;;;;0.00;0.00;;;;;;;10.43;78.26;102467.97;10541034;28;20386;-67
2021/05/28 18:26:20;;;;;;;0.10;0.10;;;;;;;10.36;79.07;102474.72;10541368;28;20028;-67
2021/05/28 18:31:20;;;;;;;0.10;0.10;;;;;;;10.34;79.40;102483.81;10540700;28;20497;-68
2021/05/28 18:36:20;;;;;;;0.10;0.10;;;;;;;10.29;79.16;102473.50;10540850;28;20482;-68
2021/05/28 18:41:21;;;;;;;0.10;0.10;;;;;;;10.21;78.88;102462.56;10540159;28;20272;-68
2021/05/28 18:46:21;;;;;;;0.10;0.10;;;;;;;10.20;78.68;102460.84;10541207;28;20031;-67
2021/05/28 18:51:21;;;;;;;0.00;0.00;;;;;;;10.16;79.42;102470.03;10540362;28;20254;-68
2021/05/28 18:56:26;;;;;;;0.10;0.10;;;;;;;10.10;78.88;102475.84;10539967;28;20024;-68
2021/05/28 19:01:26;;;;;;;;;;;;;;;10.06;78.42;102479.69;10539200;28;20020;-67
2021/05/28 19:06:28;;;;;;;0.10;0.10;;;;;;;10.04;79.74;102487.78;10538534;28;19978;-68
2021/05/28 19:11:29;;;;;;;0.10;0.10;;;;;;;10.04;79.67;102494.94;10536567;28;20024;-68
2021/05/28 19:16:29;;;;;;;0.10;0.10;;;;;;;10.02;80.09;102499.53;10537050;28;20024;-68
2021/05/28 19:21:31;;;;;;;0.03;0.03;;;;;;;9.98;80.51;102505.06;10536993;28;20115;-68
2021/05/28 19:26:31;;;;;;;0.03;0.03;;;;;;;9.93;80.29;102504.56;10539140;28;20027;-67
2021/05/28 19:31:32;;;;;;;0.10;0.10;;;;;;;9.90;80.86;102496.81;10538289;28;20024;-67
2021/05/28 19:36:32;;;;;;;0.10;0.10;;;;;;;9.87;81.03;102507.69;10520322;28;20020;-67
2021/05/28 19:41:33;;;;;;;0.10;0.10;;;;;;;9.86;81.73;102511.31;10537791;28;20380;-67
2021/05/28 19:46:34;;;;;;;0.10;0.10;;;;;;;9.85;81.92;102520.25;10538083;28;20425;-67
2021/05/28 19:51:34;;;;;;;0.10;0.10;;;;;;;9.82;82.45;102517.81;10537492;28;20024;-67
2021/05/28 19:56:34;;;;;;;0.00;0.00;;;;;;;9.78;82.43;102528.81;10537297;28;20386;-67
2021/05/28 20:01:35;;;;;;;0.00;0.00;;;;;;;9.75;82.38;102533.38;10536394;28;20227;-68
2021/05/28 20:06:38;;;;;;;0.10;0.10;;;;;;;9.72;81.95;102549.56;10526687;28;20258;-67
2021/05/28 20:11:57;;;;;;;0.10;0.10;;;;;;;9.70;82.54;102542.66;10534064;28;20471;-67
2021/05/28 20:16:58;;;;;;;0.10;0.10;;;;;;;9.67;82.96;102538.41;10534010;28;20161;-67
2021/05/28 20:21:58;;;;;;;0.10;0.10;;;;;;;9.68;82.49;102549.91;10521837;28;20031;-68
2021/05/28 20:27:01;;;;;;;0.00;0.00;;;;;;;9.65;82.01;102550.97;10491784;28;20026;-67
2021/05/28 20:32:02;;;;;;;0.00;0.00;;;;;;;9.64;81.94;102551.09;10491054;28;20287;-68
2021/05/28 20:37:03;;;;;;;0.10;0.10;;;;;;;9.61;82.55;102546.84;10492020;28;20031;-67
2021/05/28 20:42:03;;;;;;;0.10;0.10;;;;;;;9.59;82.59;102555.88;10491631;28;20019;-67
2021/05/28 20:47:04;;;;;;;0.00;0.00;;;;;;;9.54;82.55;102556.25;10492079;28;20255;-66
2021/05/28 20:52:04;;;;;;;0.10;0.10;;;;;;;9.50;82.52;102555.59;10508401;22;20047;-67
2021/05/28 20:57:24;;;;;;;0.10;0.10;;;;;;;9.48;83.48;102564.63;10540499;28;20077;-67
2021/05/28 21:02:25;;;;;;;0.00;0.00;;;;;;;9.43;82.29;102562.31;10546523;28;20027;-67
2021/05/28 21:07:26;;;;;;;0.10;0.10;;;;;;;9.40;82.77;102557.22;10554095;28;20031;-67
2021/05/28 21:12:26;;;;;;;0.10;0.10;;;;;;;9.36;82.76;102558.38;10555429;28;20015;-67
2021/05/28 21:17:27;;;;;;;0.10;0.10;;;;;;;9.31;82.03;102552.56;10559573;28;20545;-67
2021/05/28 21:22:27;;;;;;;0.00;0.00;;;;;;;9.28;82.89;102552.78;10557573;28;20280;-67
2021/05/28 21:27:28;;;;;;;0.03;0.03;;;;;;;9.27;82.61;102556.38;10548690;28;20016;-67
2021/05/28 21:32:28;;;;;;;0.10;0.10;;;;;;;9.26;83.12;102549.38;10555021;28;20023;-67
2021/05/28 21:37:28;;;;;;;0.00;0.00;;;;;;;9.24;82.95;102552.13;10558151;28;20023;-67
2021/05/28 21:42:29;;;;;;;0.00;0.00;;;;;;;9.23;83.54;102561.06;10553398;27;20027;-67
2021/05/28 21:47:29;;;;;;;0.03;0.03;;;;;;;9.23;83.06;102557.56;10562442;28;20240;-67
2021/05/28 21:52:29;;;;;;;0.10;0.10;;;;;;;9.24;83.52;102559.25;10553322;28;20019;-67
2021/05/28 21:57:29;;;;;;;0.10;0.10;;;;;;;9.23;83.89;102552.25;10564493;28;20031;-67
2021/05/28 22:02:30;;;;;;;0.10;0.10;;;;;;;9.23;83.58;102563.72;10558596;28;20018;-67
2021/05/28 22:07:30;;;;;;;0.10;0.10;;;;;;;9.15;83.24;102579.34;10552304;28;20012;-67
2021/05/28 22:12:30;;;;;;;0.10;0.10;;;;;;;9.08;83.34;102572.78;10554249;28;20190;-67
2021/05/28 22:17:31;;;;;;;0.10;0.10;;;;;;;9.02;83.80;102582.03;10559125;28;20113;-67
2021/05/28 22:22:31;;;;;;;0.10;0.10;;;;;;;8.97;84.42;102580.66;10548434;28;20281;-67
2021/05/28 22:27:47;;;;;;;0.10;0.10;;;;;;;8.90;84.21;102582.88;10552706;28;20091;-67
2021/05/28 22:38:06;;;;;;;0.10;0.10;;;;;;;8.78;84.53;102581.88;10571759;28;20028;-67
2021/05/28 22:43:07;;;;;;;0.00;0.00;;;;;;;8.77;85.46;102584.66;10555018;28;20114;-68
2021/05/28 22:48:09;;;;;;;0.03;0.03;;;;;;;8.73;85.02;102577.88;10567036;28;20410;-67
2021/05/28 22:53:09;;;;;;;0.10;0.10;;;;;;;8.71;84.62;102574.44;10564464;28;20103;-67
2021/05/28 22:58:10;;;;;;;0.10;0.10;;;;;;;8.69;84.46;102574.53;10553293;28;20098;-67
2021/05/28 23:03:11;;;;;;;0.10;0.10;;;;;;;8.69;84.66;102565.72;10557774;28;20118;-67
2021/05/28 23:08:13;;;;;;;0.10;0.10;;;;;;;8.69;84.80;102563.91;10555949;28;20012;-67
2021/05/28 23:13:14;;;;;;;0.10;0.10;;;;;;;8.66;84.67;102552.66;10557977;28;20020;-67
2021/05/28 23:18:14;;;;;;;0.10;0.10;;;;;;;8.63;84.82;102550.22;10566692;28;20118;-67